sensor_id;sensor_type;location;lat;lon;timestamp;pressure;altitude;pressure_sealevel;temperature;humidity
23176;BME280;19910;42.652;23.332;2022-08-19T00:00:10;94364.38;;;21.03;66.37
23176;BME280;19910;42.652;23.332;2022-08-19T00:02:40;94362.03;;;20.94;66.83
23176;BME280;19910;42.652;23.332;2022-08-19T00:05:08;94373.84;;;20.91;66.61
23176;BME280;19910;42.652;23.332;2022-08-19T00:07:35;94371.47;;;20.93;66.10
23176;BME280;19910;42.652;23.332;2022-08-19T00:10:06;94379.41;;;20.84;65.89
23176;BME280;19910;42.652;23.332;2022-08-19T00:12:33;94373.16;;;20.73;65.60
23176;BME280;19910;42.652;23.332;2022-08-19T00:15:02;94367.66;;;20.69;65.15
23176;BME280;19910;42.652;23.332;2022-08-19T00:17:28;94377.13;;;20.54;65.56
23176;BME280;19910;42.652;23.332;2022-08-19T00:19:55;94382.22;;;20.52;66.04
23176;BME280;19910;42.652;23.332;2022-08-19T00:22:23;94379.88;;;20.54;65.63
23176;BME280;19910;42.652;23.332;2022-08-19T00:24:52;94384.19;;;20.58;65.78
23176;BME280;19910;42.652;23.332;2022-08-19T00:27:20;94392.06;;;20.56;66.52
23176;BME280;19910;42.652;23.332;2022-08-19T00:29:47;94380.28;;;20.52;66.71
23176;BME280;19910;42.652;23.332;2022-08-19T00:32:14;94383.03;;;20.52;67.01
23176;BME280;19910;42.652;23.332;2022-08-19T00:34:41;94385.00;;;20.48;67.16
23176;BME280;19910;42.652;23.332;2022-08-19T00:37:09;94385.00;;;20.48;67.84
23176;BME280;19910;42.652;23.332;2022-08-19T00:39:36;94381.06;;;20.53;67.50
23176;BME280;19910;42.652;23.332;2022-08-19T00:42:03;94377.94;;;20.37;67.70
23176;BME280;19910;42.652;23.332;2022-08-19T00:44:33;94376.38;;;20.32;67.92
23176;BME280;19910;42.652;23.332;2022-08-19T00:47:00;94371.66;;;20.40;68.22
23176;BME280;19910;42.652;23.332;2022-08-19T00:49:29;94373.22;;;20.44;67.02
23176;BME280;19910;42.652;23.332;2022-08-19T00:52:00;94374.00;;;20.41;66.74
23176;BME280;19910;42.652;23.332;2022-08-19T00:54:29;94377.19;;;20.36;68.10
23176;BME280;19910;42.652;23.332;2022-08-19T00:56:56;94364.97;;;20.44;67.74
23176;BME280;19910;42.652;23.332;2022-08-19T00:59:25;94372.81;;;20.35;67.20
23176;BME280;19910;42.652;23.332;2022-08-19T01:01:53;94372.44;;;20.37;68.02
23176;BME280;19910;42.652;23.332;2022-08-19T01:04:20;94373.59;;;20.25;67.99
23176;BME280;19910;42.652;23.332;2022-08-19T01:06:47;94376.34;;;20.29;67.60
23176;BME280;19910;42.652;23.332;2022-08-19T01:09:14;94372.44;;;20.26;67.66
23176;BME280;19910;42.652;23.332;2022-08-19T01:11:43;94369.31;;;20.17;68.32
23176;BME280;19910;42.652;23.332;2022-08-19T01:14:12;94376.34;;;20.25;68.61
23176;BME280;19910;42.652;23.332;2022-08-19T01:16:40;94374.03;;;20.06;69.98
23176;BME280;19910;42.652;23.332;2022-08-19T01:19:18;94370.88;;;20.00;70.24
23176;BME280;19910;42.652;23.332;2022-08-19T01:21:51;94369.31;;;19.96;70.08
23176;BME280;19910;42.652;23.332;2022-08-19T01:24:20;94368.53;;;19.92;70.35
23176;BME280;19910;42.652;23.332;2022-08-19T01:26:48;94368.56;;;19.95;70.79
23176;BME280;19910;42.652;23.332;2022-08-19T01:29:15;94372.06;;;19.96;70.45
23176;BME280;19910;42.652;23.332;2022-08-19T01:31:41;94366.97;;;19.76;70.51
23176;BME280;19910;42.652;23.332;2022-08-19T01:34:09;94372.47;;;19.76;70.92
23176;BME280;19910;42.652;23.332;2022-08-19T01:36:38;94377.94;;;19.69;71.29
23176;BME280;19910;42.652;23.332;2022-08-19T01:39:09;94370.88;;;19.68;71.49
23176;BME280;19910;42.652;23.332;2022-08-19T01:41:39;94370.88;;;19.82;70.95
23176;BME280;19910;42.652;23.332;2022-08-19T01:44:07;94374.84;;;19.81;70.56
23176;BME280;19910;42.652;23.332;2022-08-19T01:46:35;94370.91;;;19.90;70.29
23176;BME280;19910;42.652;23.332;2022-08-19T01:49:03;94372.47;;;19.91;70.57
23176;BME280;19910;42.652;23.332;2022-08-19T01:51:31;94378.75;;;19.87;70.91
23176;BME280;19910;42.652;23.332;2022-08-19T01:53:58;94379.53;;;19.81;71.14
23176;BME280;19910;42.652;23.332;2022-08-19T01:56:25;94379.53;;;19.77;71.36
23176;BME280;19910;42.652;23.332;2022-08-19T01:58:55;94374.81;;;19.74;71.27
23176;BME280;19910;42.652;23.332;2022-08-19T02:01:24;94375.59;;;19.64;71.78
23176;BME280;19910;42.652;23.332;2022-08-19T02:03:51;94370.88;;;19.61;71.92
23176;BME280;19910;42.652;23.332;2022-08-19T02:06:19;94376.31;;;19.47;72.20
23176;BME280;19910;42.652;23.332;2022-08-19T02:08:46;94384.16;;;19.45;71.84
23176;BME280;19910;42.652;23.332;2022-08-19T02:11:20;94370.03;;;19.46;71.71
23176;BME280;19910;42.652;23.332;2022-08-19T02:13:48;94372.00;;;19.46;71.29
23176;BME280;19910;42.652;23.332;2022-08-19T02:16:18;94378.69;;;19.45;71.14
23176;BME280;19910;42.652;23.332;2022-08-19T02:18:45;94372.00;;;19.39;71.39
23176;BME280;19910;42.652;23.332;2022-08-19T02:21:12;94380.25;;;19.39;71.36
23176;BME280;19910;42.652;23.332;2022-08-19T02:23:40;94373.97;;;19.35;71.36
23176;BME280;19910;42.652;23.332;2022-08-19T02:26:06;94381.03;;;19.36;71.49
23176;BME280;19910;42.652;23.332;2022-08-19T02:28:34;94378.66;;;19.31;71.49
23176;BME280;19910;42.652;23.332;2022-08-19T02:31:02;94376.28;;;19.33;71.54
23176;BME280;19910;42.652;23.332;2022-08-19T02:33:30;94381.00;;;19.29;71.86
23176;BME280;19910;42.652;23.332;2022-08-19T02:35:57;94380.22;;;19.32;72.13
23176;BME280;19910;42.652;23.332;2022-08-19T02:38:24;94381.78;;;19.33;72.42
23176;BME280;19910;42.652;23.332;2022-08-19T02:40:54;94376.66;;;19.21;72.91
23176;BME280;19910;42.652;23.332;2022-08-19T02:43:23;94388.81;;;19.16;73.22
23176;BME280;19910;42.652;23.332;2022-08-19T02:45:51;94382.13;;;19.13;73.56
23176;BME280;19910;42.652;23.332;2022-08-19T02:48:20;94384.50;;;19.15;73.46
23176;BME280;19910;42.652;23.332;2022-08-19T02:50:50;94388.81;;;19.16;73.40
23176;BME280;19910;42.652;23.332;2022-08-19T02:53:20;94391.59;;;19.34;73.53
23176;BME280;19910;42.652;23.332;2022-08-19T02:55:48;94390.41;;;19.28;73.72
23176;BME280;19910;42.652;23.332;2022-08-19T02:58:15;94392.38;;;19.24;73.59
23176;BME280;19910;42.652;23.332;2022-08-19T03:00:43;94391.19;;;19.28;73.45
23176;BME280;19910;42.652;23.332;2022-08-19T03:03:10;94388.47;;;19.25;73.44
23176;BME280;19910;42.652;23.332;2022-08-19T03:05:37;94389.22;;;19.22;73.74
23176;BME280;19910;42.652;23.332;2022-08-19T03:08:06;94395.13;;;19.24;73.59
23176;BME280;19910;42.652;23.332;2022-08-19T03:10:40;94402.97;;;19.22;73.75
23176;BME280;19910;42.652;23.332;2022-08-19T03:13:07;94388.81;;;19.16;74.41
23176;BME280;19910;42.652;23.332;2022-08-19T03:15:34;94395.06;;;19.09;74.65
23176;BME280;19910;42.652;23.332;2022-08-19T03:18:01;94387.25;;;19.11;74.40
23176;BME280;19910;42.652;23.332;2022-08-19T03:20:28;94385.63;;;19.03;74.82
23176;BME280;19910;42.652;23.332;2022-08-19T03:22:54;94379.38;;;19.06;74.04
23176;BME280;19910;42.652;23.332;2022-08-19T03:25:22;94386.44;;;19.14;74.12
23176;BME280;19910;42.652;23.332;2022-08-19T03:27:49;94382.53;;;19.08;73.64
23176;BME280;19910;42.652;23.332;2022-08-19T03:30:16;94378.59;;;19.16;73.73
23176;BME280;19910;42.652;23.332;2022-08-19T03:32:43;94384.88;;;19.06;73.97
23176;BME280;19910;42.652;23.332;2022-08-19T03:35:10;94380.94;;;19.07;73.93
23176;BME280;19910;42.652;23.332;2022-08-19T03:37:37;94381.72;;;19.08;73.92
23176;BME280;19910;42.652;23.332;2022-08-19T03:40:05;94389.22;;;19.18;73.21
23176;BME280;19910;42.652;23.332;2022-08-19T03:42:33;94383.31;;;19.20;73.10
23176;BME280;19910;42.652;23.332;2022-08-19T03:45:00;94392.38;;;19.24;73.10
23176;BME280;19910;42.652;23.332;2022-08-19T03:47:27;94392.00;;;19.36;72.51
23176;BME280;19910;42.652;23.332;2022-08-19T03:49:53;94400.25;;;19.43;72.22
23176;BME280;19910;42.652;23.332;2022-08-19T03:52:20;94402.69;;;19.69;70.64
23176;BME280;19910;42.652;23.332;2022-08-19T03:54:47;94399.16;;;20.29;69.24
23176;BME280;19910;42.652;23.332;2022-08-19T03:57:14;94404.88;;;21.06;66.49
23176;BME280;19910;42.652;23.332;2022-08-19T03:59:42;94407.34;;;21.70;64.65
23176;BME280;19910;42.652;23.332;2022-08-19T04:02:11;94409.00;;;22.15;62.76
23176;BME280;19910;42.652;23.332;2022-08-19T04:04:40;94404.19;;;22.67;61.16
23176;BME280;19910;42.652;23.332;2022-08-19T04:07:09;94405.44;;;23.31;59.37
23176;BME280;19910;42.652;23.332;2022-08-19T04:09:35;94403.75;;;23.71;57.97
23176;BME280;19910;42.652;23.332;2022-08-19T04:12:04;94400.97;;;23.98;57.14
23176;BME280;19910;42.652;23.332;2022-08-19T04:14:31;94401.75;;;24.49;55.36
23176;BME280;19910;42.652;23.332;2022-08-19T04:17:01;94397.31;;;24.74;54.64
23176;BME280;19910;42.652;23.332;2022-08-19T04:19:30;94397.97;;;25.25;53.15
23176;BME280;19910;42.652;23.332;2022-08-19T04:21:58;94409.63;;;25.36;52.69
23176;BME280;19910;42.652;23.332;2022-08-19T04:24:25;94408.53;;;25.50;52.24
23176;BME280;19910;42.652;23.332;2022-08-19T04:26:52;94415.50;;;25.78;51.61
23176;BME280;19910;42.652;23.332;2022-08-19T04:29:22;94409.38;;;26.19;50.73
23176;BME280;19910;42.652;23.332;2022-08-19T04:31:51;94412.16;;;26.68;49.09
23176;BME280;19910;42.652;23.332;2022-08-19T04:34:21;94400.53;;;27.18;47.58
23176;BME280;19910;42.652;23.332;2022-08-19T04:36:50;94400.94;;;27.87;46.29
23176;BME280;19910;42.652;23.332;2022-08-19T04:39:19;94395.13;;;27.94;45.73
23176;BME280;19910;42.652;23.332;2022-08-19T04:41:46;94392.78;;;28.18;44.63
23176;BME280;19910;42.652;23.332;2022-08-19T04:44:31;94394.03;;;28.77;43.66
23176;BME280;19910;42.652;23.332;2022-08-19T04:46:59;94393.50;;;28.69;43.42
23176;BME280;19910;42.652;23.332;2022-08-19T04:49:27;94394.00;;;28.55;43.93
23176;BME280;19910;42.652;23.332;2022-08-19T04:51:55;94389.19;;;29.03;43.28
23176;BME280;19910;42.652;23.332;2022-08-19T04:54:24;94393.38;;;29.63;42.54
23176;BME280;19910;42.652;23.332;2022-08-19T04:56:52;94395.91;;;29.80;42.02
23176;BME280;19910;42.652;23.332;2022-08-19T04:59:20;94399.03;;;29.82;42.69
23176;BME280;19910;42.652;23.332;2022-08-19T05:01:47;94397.69;;;30.17;41.91
23176;BME280;19910;42.652;23.332;2022-08-19T05:04:16;94407.19;;;30.78;41.02
23176;BME280;19910;42.652;23.332;2022-08-19T05:06:46;94403.84;;;31.11;40.07
23176;BME280;19910;42.652;23.332;2022-08-19T05:09:14;94410.03;;;30.96;39.96
23176;BME280;19910;42.652;23.332;2022-08-19T05:11:42;94411.91;;;31.18;39.74
23176;BME280;19910;42.652;23.332;2022-08-19T05:14:09;94416.81;;;30.77;40.66
23176;BME280;19910;42.652;23.332;2022-08-19T05:16:37;94402.28;;;31.19;40.15
23176;BME280;19910;42.652;23.332;2022-08-19T05:19:04;94405.72;;;31.68;39.01
23176;BME280;19910;42.652;23.332;2022-08-19T05:21:50;94396.03;;;31.78;38.52
23176;BME280;19910;42.652;23.332;2022-08-19T05:24:35;94402.75;;;32.23;37.11
23176;BME280;19910;42.652;23.332;2022-08-19T05:27:02;94408.44;;;31.96;37.35
23176;BME280;19910;42.652;23.332;2022-08-19T05:29:32;94402.13;;;32.85;35.93
23176;BME280;19910;42.652;23.332;2022-08-19T05:32:01;94405.31;;;32.45;36.31
23176;BME280;19910;42.652;23.332;2022-08-19T05:34:28;94413.78;;;33.16;34.67
23176;BME280;19910;42.652;23.332;2022-08-19T05:36:58;94409.00;;;32.84;36.05
23176;BME280;19910;42.652;23.332;2022-08-19T05:39:28;94411.13;;;33.37;35.27
23176;BME280;19910;42.652;23.332;2022-08-19T05:41:59;94411.47;;;33.53;35.04
23176;BME280;19910;42.652;23.332;2022-08-19T05:44:27;94411.22;;;34.25;33.16
23176;BME280;19910;42.652;23.332;2022-08-19T05:46:56;94412.19;;;33.93;33.92
23176;BME280;19910;42.652;23.332;2022-08-19T05:49:23;94398.59;;;34.35;33.16
23176;BME280;19910;42.652;23.332;2022-08-19T05:51:51;94407.09;;;33.52;33.68
23176;BME280;19910;42.652;23.332;2022-08-19T05:54:19;94404.41;;;34.46;32.74
23176;BME280;19910;42.652;23.332;2022-08-19T05:56:46;94402.25;;;34.56;31.87
23176;BME280;19910;42.652;23.332;2022-08-19T05:59:15;94404.22;;;35.05;31.08
23176;BME280;19910;42.652;23.332;2022-08-19T06:01:44;94402.06;;;35.81;30.74
23176;BME280;19910;42.652;23.332;2022-08-19T06:04:12;94405.09;;;35.32;30.64
23176;BME280;19910;42.652;23.332;2022-08-19T06:06:40;94411.41;;;35.06;31.37
23176;BME280;19910;42.652;23.332;2022-08-19T06:09:07;94412.81;;;34.96;30.80
23176;BME280;19910;42.652;23.332;2022-08-19T06:11:38;94408.84;;;34.53;31.77
23176;BME280;19910;42.652;23.332;2022-08-19T06:14:09;94410.97;;;34.58;31.70
23176;BME280;19910;42.652;23.332;2022-08-19T06:16:37;94417.63;;;35.10;31.21
23176;BME280;19910;42.652;23.332;2022-08-19T06:19:07;94421.34;;;35.42;30.74
23176;BME280;19910;42.652;23.332;2022-08-19T06:21:36;94416.09;;;34.59;31.91
23176;BME280;19910;42.652;23.332;2022-08-19T06:24:05;94411.00;;;36.31;30.35
23176;BME280;19910;42.652;23.332;2022-08-19T06:26:34;94417.19;;;36.10;30.01
23176;BME280;19910;42.652;23.332;2022-08-19T06:29:03;94409.75;;;35.35;30.50
23176;BME280;19910;42.652;23.332;2022-08-19T06:31:33;94423.69;;;35.44;31.13
23176;BME280;19910;42.652;23.332;2022-08-19T06:34:01;94415.91;;;35.59;30.54
23176;BME280;19910;42.652;23.332;2022-08-19T06:36:33;94413.94;;;36.17;30.11
23176;BME280;19910;42.652;23.332;2022-08-19T06:39:02;94420.56;;;35.42;30.88
23176;BME280;19910;42.652;23.332;2022-08-19T06:41:29;94415.94;;;35.39;31.03
23176;BME280;19910;42.652;23.332;2022-08-19T06:43:57;94415.19;;;34.04;32.71
23176;BME280;19910;42.652;23.332;2022-08-19T06:46:25;94417.09;;;34.91;31.99
23176;BME280;19910;42.652;23.332;2022-08-19T06:48:53;94419.22;;;34.97;32.54
23176;BME280;19910;42.652;23.332;2022-08-19T06:51:21;94413.72;;;34.23;32.09
23176;BME280;19910;42.652;23.332;2022-08-19T06:53:51;94414.63;;;34.99;31.19
23176;BME280;19910;42.652;23.332;2022-08-19T06:56:20;94413.91;;;34.19;32.01
23176;BME280;19910;42.652;23.332;2022-08-19T06:58:47;94420.31;;;34.20;33.04
23176;BME280;19910;42.652;23.332;2022-08-19T07:01:20;94424.78;;;34.91;30.83
23176;BME280;19910;42.652;23.332;2022-08-19T07:03:48;94420.81;;;35.38;31.05
23176;BME280;19910;42.652;23.332;2022-08-19T07:06:17;94425.13;;;34.78;31.94
23176;BME280;19910;42.652;23.332;2022-08-19T07:08:45;94427.41;;;34.95;31.96
23176;BME280;19910;42.652;23.332;2022-08-19T07:11:16;94430.00;;;35.18;31.13
23176;BME280;19910;42.652;23.332;2022-08-19T07:13:45;94431.78;;;34.31;32.23
23176;BME280;19910;42.652;23.332;2022-08-19T07:16:15;94427.75;;;35.02;31.84
23176;BME280;19910;42.652;23.332;2022-08-19T07:18:44;94419.88;;;35.26;31.60
23176;BME280;19910;42.652;23.332;2022-08-19T07:21:16;94427.59;;;34.91;32.16
23176;BME280;19910;42.652;23.332;2022-08-19T07:23:44;94430.69;;;33.07;34.91
23176;BME280;19910;42.652;23.332;2022-08-19T07:26:13;94431.84;;;33.25;35.14
23176;BME280;19910;42.652;23.332;2022-08-19T07:28:41;94435.44;;;32.17;36.78
23176;BME280;19910;42.652;23.332;2022-08-19T07:31:10;94432.06;;;32.04;37.18
23176;BME280;19910;42.652;23.332;2022-08-19T07:33:38;94430.31;;;32.58;36.56
23176;BME280;19910;42.652;23.332;2022-08-19T07:36:07;94432.88;;;32.46;37.04
23176;BME280;19910;42.652;23.332;2022-08-19T07:38:39;94422.66;;;33.39;35.15
23176;BME280;19910;42.652;23.332;2022-08-19T07:41:09;94424.41;;;33.12;35.63
23176;BME280;19910;42.652;23.332;2022-08-19T07:43:36;94427.22;;;33.36;34.62
23176;BME280;19910;42.652;23.332;2022-08-19T07:46:03;94420.31;;;33.61;34.26
23176;BME280;19910;42.652;23.332;2022-08-19T07:48:31;94422.84;;;34.03;34.20
23176;BME280;19910;42.652;23.332;2022-08-19T07:51:00;94419.66;;;32.80;35.27
23176;BME280;19910;42.652;23.332;2022-08-19T07:53:27;94424.03;;;33.43;34.31
23176;BME280;19910;42.652;23.332;2022-08-19T07:55:56;94423.41;;;33.25;34.57
23176;BME280;19910;42.652;23.332;2022-08-19T07:58:24;94419.38;;;34.08;33.60
23176;BME280;19910;42.652;23.332;2022-08-19T08:00:52;94430.16;;;33.57;35.24
23176;BME280;19910;42.652;23.332;2022-08-19T08:03:21;94419.94;;;32.82;36.30
23176;BME280;19910;42.652;23.332;2022-08-19T08:06:09;94417.91;;;34.13;33.56
23176;BME280;19910;42.652;23.332;2022-08-19T08:08:53;94415.28;;;34.39;33.55
23176;BME280;19910;42.652;23.332;2022-08-19T08:11:47;94422.84;;;33.11;34.57
23176;BME280;19910;42.652;23.332;2022-08-19T08:14:16;94421.25;;;33.58;34.62
23176;BME280;19910;42.652;23.332;2022-08-19T08:16:44;94415.97;;;33.36;34.16
23176;BME280;19910;42.652;23.332;2022-08-19T08:19:12;94421.78;;;32.85;35.22
23176;BME280;19910;42.652;23.332;2022-08-19T08:21:41;94414.84;;;32.95;34.52
23176;BME280;19910;42.652;23.332;2022-08-19T08:24:09;94411.56;;;32.73;34.38
23176;BME280;19910;42.652;23.332;2022-08-19T08:26:36;94402.13;;;33.86;32.84
23176;BME280;19910;42.652;23.332;2022-08-19T08:29:05;94407.66;;;33.42;33.74
23176;BME280;19910;42.652;23.332;2022-08-19T08:31:32;94404.44;;;33.10;34.19
23176;BME280;19910;42.652;23.332;2022-08-19T08:33:59;94404.72;;;32.74;35.45
23176;BME280;19910;42.652;23.332;2022-08-19T08:36:26;94399.00;;;32.17;35.30
23176;BME280;19910;42.652;23.332;2022-08-19T08:38:54;94404.06;;;32.70;34.86
23176;BME280;19910;42.652;23.332;2022-08-19T08:41:26;94392.84;;;32.70;34.70
23176;BME280;19910;42.652;23.332;2022-08-19T08:43:55;94393.91;;;32.48;34.48
23176;BME280;19910;42.652;23.332;2022-08-19T08:46:29;94401.09;;;32.40;33.60
23176;BME280;19910;42.652;23.332;2022-08-19T08:49:01;94394.00;;;32.63;32.78
23176;BME280;19910;42.652;23.332;2022-08-19T08:51:36;94388.63;;;32.41;32.12
23176;BME280;19910;42.652;23.332;2022-08-19T08:54:06;94391.16;;;32.72;32.77
23176;BME280;19910;42.652;23.332;2022-08-19T08:56:34;94393.63;;;33.42;31.32
23176;BME280;19910;42.652;23.332;2022-08-19T08:59:04;94380.19;;;34.05;28.93
23176;BME280;19910;42.652;23.332;2022-08-19T09:01:35;94380.34;;;34.45;28.75
23176;BME280;19910;42.652;23.332;2022-08-19T09:04:03;94381.34;;;34.42;29.36
23176;BME280;19910;42.652;23.332;2022-08-19T09:06:38;94378.16;;;33.91;32.25
23176;BME280;19910;42.652;23.332;2022-08-19T09:09:14;94368.72;;;33.49;33.54
23176;BME280;19910;42.652;23.332;2022-08-19T09:11:53;94378.31;;;33.04;32.55
23176;BME280;19910;42.652;23.332;2022-08-19T09:14:34;94380.81;;;33.02;31.93
23176;BME280;19910;42.652;23.332;2022-08-19T09:17:04;94378.63;;;33.45;32.19
23176;BME280;19910;42.652;23.332;2022-08-19T09:19:33;94366.25;;;33.96;30.97
23176;BME280;19910;42.652;23.332;2022-08-19T09:22:00;94370.88;;;33.69;28.64
23176;BME280;19910;42.652;23.332;2022-08-19T09:24:27;94379.53;;;33.27;29.93
23176;BME280;19910;42.652;23.332;2022-08-19T09:26:54;94370.13;;;32.92;30.54
23176;BME280;19910;42.652;23.332;2022-08-19T09:29:21;94366.47;;;33.00;30.01
23176;BME280;19910;42.652;23.332;2022-08-19T09:31:48;94365.44;;;33.51;29.29
23176;BME280;19910;42.652;23.332;2022-08-19T09:34:17;94356.34;;;33.56;29.34
23176;BME280;19910;42.652;23.332;2022-08-19T09:36:45;94355.03;;;33.28;29.64
23176;BME280;19910;42.652;23.332;2022-08-19T09:39:12;94365.06;;;33.58;29.74
23176;BME280;19910;42.652;23.332;2022-08-19T09:41:39;94351.09;;;34.08;29.47
23176;BME280;19910;42.652;23.332;2022-08-19T09:44:06;94355.94;;;33.63;28.82
23176;BME280;19910;42.652;23.332;2022-08-19T09:46:32;94355.28;;;33.68;28.37
23176;BME280;19910;42.652;23.332;2022-08-19T09:49:00;94355.28;;;33.68;28.68
23176;BME280;19910;42.652;23.332;2022-08-19T09:51:28;94353.69;;;33.38;28.12
23176;BME280;19910;42.652;23.332;2022-08-19T09:53:59;94348.38;;;33.40;28.01
23176;BME280;19910;42.652;23.332;2022-08-19T09:56:27;94347.13;;;33.70;28.17
23176;BME280;19910;42.652;23.332;2022-08-19T09:58:54;94347.97;;;34.35;26.72
23176;BME280;19910;42.652;23.332;2022-08-19T10:01:22;94345.00;;;34.09;26.99
23176;BME280;19910;42.652;23.332;2022-08-19T10:03:51;94336.72;;;34.35;27.38
23176;BME280;19910;42.652;23.332;2022-08-19T10:06:19;94328.66;;;34.63;27.34
23176;BME280;19910;42.652;23.332;2022-08-19T10:08:48;94323.94;;;34.75;26.97
23176;BME280;19910;42.652;23.332;2022-08-19T10:11:17;94327.78;;;34.92;26.67
23176;BME280;19910;42.652;23.332;2022-08-19T10:13:44;94326.72;;;34.89;26.71
23176;BME280;19910;42.652;23.332;2022-08-19T10:16:13;94331.56;;;35.09;27.28
23176;BME280;19910;42.652;23.332;2022-08-19T10:18:41;94322.63;;;34.70;27.16
23176;BME280;19910;42.652;23.332;2022-08-19T10:21:11;94324.91;;;34.72;27.82
23176;BME280;19910;42.652;23.332;2022-08-19T10:23:40;94322.56;;;35.05;27.55
23176;BME280;19910;42.652;23.332;2022-08-19T10:26:11;94315.59;;;35.47;26.59
23176;BME280;19910;42.652;23.332;2022-08-19T10:28:39;94315.97;;;35.60;25.76
23176;BME280;19910;42.652;23.332;2022-08-19T10:31:07;94310.63;;;35.62;25.63
23176;BME280;19910;42.652;23.332;2022-08-19T10:33:35;94312.69;;;35.36;25.59
23176;BME280;19910;42.652;23.332;2022-08-19T10:36:05;94304.00;;;35.39;25.39
23176;BME280;19910;42.652;23.332;2022-08-19T10:38:32;94311.63;;;35.59;25.88
23176;BME280;19910;42.652;23.332;2022-08-19T10:41:06;94300.03;;;35.77;25.85
23176;BME280;19910;42.652;23.332;2022-08-19T10:43:35;94299.06;;;35.60;25.70
23176;BME280;19910;42.652;23.332;2022-08-19T10:46:04;94298.66;;;35.98;25.71
23176;BME280;19910;42.652;23.332;2022-08-19T10:48:31;94304.22;;;35.61;25.82
23176;BME280;19910;42.652;23.332;2022-08-19T10:50:58;94302.22;;;35.42;25.98
23176;BME280;19910;42.652;23.332;2022-08-19T10:53:43;94300.13;;;35.37;25.66
23176;BME280;19910;42.652;23.332;2022-08-19T10:56:10;94298.31;;;35.13;25.97
23176;BME280;19910;42.652;23.332;2022-08-19T10:58:55;94301.00;;;35.22;27.08
23176;BME280;19910;42.652;23.332;2022-08-19T11:01:23;94306.19;;;35.30;26.30
23176;BME280;19910;42.652;23.332;2022-08-19T11:03:50;94288.97;;;35.48;26.29
23176;BME280;19910;42.652;23.332;2022-08-19T11:06:18;94298.13;;;35.43;25.99
23176;BME280;19910;42.652;23.332;2022-08-19T11:08:44;94291.88;;;35.07;26.47
23176;BME280;19910;42.652;23.332;2022-08-19T11:11:11;94292.44;;;34.91;27.06
23176;BME280;19910;42.652;23.332;2022-08-19T11:13:40;94297.41;;;34.61;26.84
23176;BME280;19910;42.652;23.332;2022-08-19T11:16:12;94292.63;;;34.12;27.40
23176;BME280;19910;42.652;23.332;2022-08-19T11:18:42;94297.81;;;33.99;27.62
23176;BME280;19910;42.652;23.332;2022-08-19T11:21:14;94287.34;;;34.34;27.95
23176;BME280;19910;42.652;23.332;2022-08-19T11:23:43;94288.41;;;34.22;27.36
23176;BME280;19910;42.652;23.332;2022-08-19T11:26:10;94288.56;;;34.13;27.72
23176;BME280;19910;42.652;23.332;2022-08-19T11:28:37;94285.16;;;34.09;28.12
23176;BME280;19910;42.652;23.332;2022-08-19T11:31:11;94290.16;;;33.84;28.07
23176;BME280;19910;42.652;23.332;2022-08-19T11:33:38;94273.88;;;33.88;28.57
23176;BME280;19910;42.652;23.332;2022-08-19T11:36:05;94277.16;;;33.72;28.42
23176;BME280;19910;42.652;23.332;2022-08-19T11:38:32;94276.00;;;33.94;28.76
23176;BME280;19910;42.652;23.332;2022-08-19T11:41:03;94275.53;;;34.30;27.87
23176;BME280;19910;42.652;23.332;2022-08-19T11:43:31;94275.25;;;34.28;27.78
23176;BME280;19910;42.652;23.332;2022-08-19T11:45:58;94270.28;;;34.23;27.92
23176;BME280;19910;42.652;23.332;2022-08-19T11:48:26;94275.13;;;34.78;27.45
23176;BME280;19910;42.652;23.332;2022-08-19T11:50:53;94269.13;;;34.50;27.14
23176;BME280;19910;42.652;23.332;2022-08-19T11:53:22;94267.94;;;34.97;27.19
23176;BME280;19910;42.652;23.332;2022-08-19T11:55:49;94260.50;;;35.46;26.66
23176;BME280;19910;42.652;23.332;2022-08-19T11:58:18;94261.06;;;35.81;26.28
23176;BME280;19910;42.652;23.332;2022-08-19T12:00:44;94261.13;;;35.30;26.39
23176;BME280;19910;42.652;23.332;2022-08-19T12:03:12;94255.72;;;35.26;26.48
23176;BME280;19910;42.652;23.332;2022-08-19T12:05:41;94249.28;;;35.25;26.38
23176;BME280;19910;42.652;23.332;2022-08-19T12:08:08;94243.78;;;35.37;26.84
23176;BME280;19910;42.652;23.332;2022-08-19T12:10:35;94228.00;;;35.76;26.85
23176;BME280;19910;42.652;23.332;2022-08-19T12:13:03;94235.56;;;35.65;27.50
23176;BME280;19910;42.652;23.332;2022-08-19T12:15:30;94240.69;;;35.97;25.86
23176;BME280;19910;42.652;23.332;2022-08-19T12:17:57;94240.06;;;35.25;26.20
23176;BME280;19910;42.652;23.332;2022-08-19T12:20:24;94239.00;;;35.22;26.93
23176;BME280;19910;42.652;23.332;2022-08-19T12:22:53;94224.44;;;34.98;26.86
23176;BME280;19910;42.652;23.332;2022-08-19T12:25:20;94232.75;;;34.67;26.89
23176;BME280;19910;42.652;23.332;2022-08-19T12:27:46;94215.38;;;35.14;26.88
23176;BME280;19910;42.652;23.332;2022-08-19T12:30:15;94212.94;;;35.27;26.89
23176;BME280;19910;42.652;23.332;2022-08-19T12:32:42;94210.69;;;35.32;26.63
23176;BME280;19910;42.652;23.332;2022-08-19T12:35:09;94209.50;;;35.44;26.97
23176;BME280;19910;42.652;23.332;2022-08-19T12:37:37;94209.50;;;35.44;27.54
23176;BME280;19910;42.652;23.332;2022-08-19T12:40:12;94212.28;;;35.12;27.26
23176;BME280;19910;42.652;23.332;2022-08-19T12:42:39;94204.09;;;35.14;27.36
23176;BME280;19910;42.652;23.332;2022-08-19T12:45:08;94207.81;;;34.34;27.51
23176;BME280;19910;42.652;23.332;2022-08-19T12:47:36;94203.34;;;34.47;27.80
23176;BME280;19910;42.652;23.332;2022-08-19T12:50:04;94202.94;;;34.14;27.94
23176;BME280;19910;42.652;23.332;2022-08-19T12:52:35;94204.94;;;33.93;28.34
23176;BME280;19910;42.652;23.332;2022-08-19T12:55:04;94210.25;;;34.26;27.77
23176;BME280;19910;42.652;23.332;2022-08-19T12:57:33;94200.56;;;34.47;27.61